Time;durP1;ratioP1;P1;durP2;ratioP2;P2;SDS_P1;SDS_P2;PMS_P1;PMS_P2;Temp;Humidity;BMP_temperature;BMP_pressure;BME280_temperature;BME280_humidity;BME280_pressure;Samples;Min_cycle;Max_cycle;Signal;HPM_P1;HPM_P2
2021/12/31 00:01:18;;;;;;;19.00;9.57;;;;;;;5.31;100.00;92778.66;4997911;28;20570;-72
2021/12/31 00:03:45;;;;;;;14.97;10.63;;;;;;;5.24;100.00;92779.66;4998219;28;20555;-72
2021/12/31 00:06:12;;;;;;;9.50;8.30;;;;;;;5.16;100.00;92768.97;4998138;28;20481;-72
2021/12/31 00:08:41;;;;;;;16.17;8.03;;;;;;;5.20;100.00;92775.56;4997613;28;20462;-72
2021/12/31 00:11:08;;;;;;;9.47;7.03;;;;;;;5.14;100.00;92768.16;4997531;28;20214;-72
2021/12/31 00:13:35;;;;;;;5.83;5.33;;;;;;;5.11;100.00;92768.22;4997482;28;20253;-72
2021/12/31 00:16:03;;;;;;;5.73;5.03;;;;;;;5.11;100.00;92771.56;4997984;28;20505;-72
2021/12/31 00:18:30;;;;;;;6.23;5.47;;;;;;;5.15;100.00;92772.31;4999503;28;20462;-72
2021/12/31 00:20:57;;;;;;;6.47;6.07;;;;;;;5.18;100.00;92770.59;4996005;28;20203;-72
2021/12/31 00:23:26;;;;;;;7.13;6.00;;;;;;;5.24;100.00;92774.66;4994520;28;20217;-72
2021/12/31 00:25:55;;;;;;;6.17;5.53;;;;;;;5.24;100.00;92770.44;4996510;28;20624;-72
2021/12/31 00:28:22;;;;;;;9.13;6.47;;;;;;;5.35;100.00;92776.06;4997912;28;20571;-72
2021/12/31 00:30:53;;;;;;;13.03;8.80;;;;;;;5.36;100.00;92776.88;4997730;28;20568;-72
2021/12/31 00:33:21;;;;;;;8.47;7.77;;;;;;;5.40;100.00;92781.00;4995938;28;20630;-72
2021/12/31 00:35:48;;;;;;;11.23;8.27;;;;;;;5.30;100.00;92785.34;4997245;28;20552;-72
2021/12/31 00:38:16;;;;;;;11.57;8.27;;;;;;;5.18;100.00;92774.78;4997074;28;20225;-72
2021/12/31 00:40:43;;;;;;;7.10;6.50;;;;;;;5.04;100.00;92761.69;4997670;28;20551;-72
2021/12/31 00:43:12;;;;;;;11.07;8.90;;;;;;;5.07;100.00;92777.47;4997234;28;20510;-72
2021/12/31 00:45:40;;;;;;;8.17;7.37;;;;;;;5.08;100.00;92766.59;4997241;28;20539;-72
2021/12/31 00:48:09;;;;;;;10.30;7.50;;;;;;;5.09;100.00;92760.75;4996261;28;20594;-72
2021/12/31 00:50:36;;;;;;;11.23;8.00;;;;;;;5.04;100.00;92752.50;4996639;28;20195;-72
2021/12/31 00:53:04;;;;;;;9.47;7.50;;;;;;;5.03;100.00;92760.03;4996675;28;20638;-72
2021/12/31 00:55:31;;;;;;;6.97;6.10;;;;;;;5.12;100.00;92767.38;4996927;28;20579;-72
2021/12/31 00:57:58;;;;;;;10.10;4.90;;;;;;;5.09;100.00;92758.25;4996779;28;20598;-72
2021/12/31 01:00:29;;;;;;;3.50;3.30;;;;;;;5.20;100.00;92765.53;4996905;28;20217;-72
2021/12/31 01:02:56;;;;;;;6.00;5.60;;;;;;;5.18;100.00;92767.25;4996398;28;20564;-72
2021/12/31 01:05:23;;;;;;;5.63;5.20;;;;;;;5.09;100.00;92760.75;4996392;28;20214;-72
2021/12/31 01:07:51;;;;;;;7.00;6.40;;;;;;;5.09;100.00;92752.41;4996997;28;20572;-72
2021/12/31 01:10:20;;;;;;;8.43;5.20;;;;;;;5.10;100.00;92759.06;4996270;28;20488;-72
2021/12/31 01:12:49;;;;;;;5.20;4.90;;;;;;;5.13;100.00;92767.34;4996587;28;20296;-72
2021/12/31 01:15:22;;;;;;;5.27;4.90;;;;;;;5.20;100.00;92768.03;4997338;28;20598;-72
2021/12/31 01:18:15;;;;;;;4.40;4.20;;;;;;;5.22;100.00;92761.34;4996112;28;20563;-72
2021/12/31 01:20:43;;;;;;;3.57;3.37;;;;;;;5.20;100.00;92760.53;4996490;28;20676;-72
2021/12/31 01:23:10;;;;;;;4.83;4.53;;;;;;;5.10;100.00;92759.06;4996322;28;20614;-72
2021/12/31 01:25:37;;;;;;;3.90;3.60;;;;;;;5.01;100.00;92748.38;4996568;28;20443;-72
2021/12/31 01:28:05;;;;;;;3.33;3.13;;;;;;;5.00;100.00;92753.44;4996136;28;20546;-72
2021/12/31 01:30:32;;;;;;;3.20;3.10;;;;;;;5.06;100.00;92760.00;4995876;28;20549;-72
2021/12/31 01:33:02;;;;;;;3.43;3.23;;;;;;;5.14;100.00;92758.13;4995690;28;20218;-72
2021/12/31 01:35:29;;;;;;;2.93;2.83;;;;;;;5.13;100.00;92752.31;4995873;28;20294;-72
2021/12/31 01:37:57;;;;;;;2.93;2.83;;;;;;;5.08;100.00;92748.25;4996255;28;20480;-72
2021/12/31 01:40:24;;;;;;;3.30;3.10;;;;;;;5.00;100.00;92750.94;4996284;28;20591;-72
2021/12/31 01:42:52;;;;;;;2.83;2.73;;;;;;;4.97;100.00;92748.47;4996099;28;20547;-72
2021/12/31 01:45:21;;;;;;;2.70;2.60;;;;;;;4.97;100.00;92759.31;4996077;28;20654;-72
2021/12/31 01:48:04;;;;;;;2.20;2.20;;;;;;;4.87;100.00;92752.84;4995419;28;20559;-72
2021/12/31 01:50:34;;;;;;;3.17;2.13;;;;;;;4.85;100.00;92756.22;4996500;28;20597;-72
2021/12/31 01:53:02;;;;;;;2.57;2.47;;;;;;;4.76;100.00;92759.72;4995812;28;20615;-72
2021/12/31 01:55:32;;;;;;;4.17;2.17;;;;;;;4.70;100.00;92751.50;4996153;28;20464;-72
2021/12/31 01:58:00;;;;;;;3.67;3.37;;;;;;;4.45;100.00;92738.63;4996854;28;20503;-72
2021/12/31 02:00:27;;;;;;;2.73;2.53;;;;;;;4.34;100.00;92743.78;4995642;28;20199;-72
2021/12/31 02:02:56;;;;;;;2.73;2.63;;;;;;;4.29;100.00;92740.56;4996591;28;20706;-72
2021/12/31 02:05:23;;;;;;;1.53;1.53;;;;;;;4.27;100.00;92733.94;4996399;28;20474;-72
2021/12/31 02:07:52;;;;;;;2.07;2.00;;;;;;;4.34;100.00;92723.00;4995992;28;20478;-72
2021/12/31 02:10:20;;;;;;;1.83;1.83;;;;;;;4.38;100.00;92725.41;4995426;28;20578;-72
2021/12/31 02:12:49;;;;;;;2.27;2.17;;;;;;;4.28;100.00;92718.91;4995437;28;20238;-72
2021/12/31 02:15:18;;;;;;;1.80;1.80;;;;;;;4.23;100.00;92707.31;4996321;28;20579;-72
2021/12/31 02:17:48;;;;;;;2.30;2.20;;;;;;;4.14;100.00;92684.16;4996797;28;20485;-72
2021/12/31 02:20:17;;;;;;;2.40;2.30;;;;;;;4.28;100.00;92696.38;4996500;28;20560;-72
2021/12/31 02:22:53;;;;;;;1.33;1.33;;;;;;;4.32;100.00;92702.19;4995737;28;20457;-72
2021/12/31 02:25:23;;;;;;;2.60;2.47;;;;;;;4.28;100.00;92698.88;4995127;28;20559;-72
2021/12/31 02:27:50;;;;;;;2.07;1.97;;;;;;;4.24;100.00;92712.31;4995177;28;20468;-72
2021/12/31 02:30:18;;;;;;;2.87;2.33;;;;;;;4.26;100.00;92727.28;4995542;28;20483;-72
2021/12/31 02:32:45;;;;;;;2.43;2.33;;;;;;;4.19;100.00;92734.06;4995666;28;20622;-72
2021/12/31 02:35:13;;;;;;;3.60;3.50;;;;;;;4.15;100.00;92749.97;4994923;28;20191;-72
2021/12/31 02:37:42;;;;;;;3.93;3.63;;;;;;;4.11;100.00;92755.88;4995510;28;20617;-72
2021/12/31 02:40:13;;;;;;;5.83;5.53;;;;;;;4.06;100.00;92765.94;4995652;28;20579;-72
2021/12/31 02:42:40;;;;;;;10.20;9.23;;;;;;;4.00;100.00;92772.72;4995402;28;20567;-72
2021/12/31 02:45:10;;;;;;;9.67;8.83;;;;;;;3.92;100.00;92775.34;4995528;28;20252;-72
2021/12/31 02:47:43;;;;;;;9.23;7.07;;;;;;;3.66;100.00;92769.91;4995338;28;20646;-72
2021/12/31 02:50:12;;;;;;;7.20;6.67;;;;;;;3.56;100.00;92768.38;4996203;28;20603;-72
2021/12/31 02:52:41;;;;;;;9.40;8.47;;;;;;;3.42;100.00;92773.56;4996017;28;20578;-72
2021/12/31 02:55:10;;;;;;;8.90;8.37;;;;;;;3.23;100.00;92759.66;4995317;28;20579;-72
2021/12/31 02:57:39;;;;;;;11.73;7.13;;;;;;;3.30;100.00;92777.06;4998889;28;20599;-72
2021/12/31 03:00:08;;;;;;;3.70;3.50;;;;;;;3.30;100.00;92759.56;4999414;28;20452;-72
2021/12/31 03:02:38;;;;;;;3.13;3.03;;;;;;;3.43;100.00;92772.72;5001083;28;20471;-72
2021/12/31 03:05:07;;;;;;;3.70;2.07;;;;;;;3.43;100.00;92770.22;4998722;28;20268;-72
2021/12/31 03:07:36;;;;;;;2.30;2.20;;;;;;;3.58;100.00;92775.00;4999302;28;20626;-72
2021/12/31 03:10:06;;;;;;;1.97;1.87;;;;;;;3.55;100.00;92774.25;4998521;28;20556;-72
2021/12/31 03:12:33;;;;;;;1.90;1.90;;;;;;;3.53;100.00;92779.25;4998761;28;20608;-72
2021/12/31 03:15:01;;;;;;;1.63;1.53;;;;;;;3.55;100.00;92775.03;4998809;28;20198;-72
2021/12/31 03:17:30;;;;;;;2.70;2.50;;;;;;;3.61;100.00;92786.59;4998171;28;20594;-72
2021/12/31 03:20:09;;;;;;;1.53;1.53;;;;;;;3.58;100.00;92784.16;4998547;28;20539;-72
2021/12/31 03:22:36;;;;;;;1.70;1.70;;;;;;;3.31;100.00;92780.38;4998474;28;20536;-72
2021/12/31 03:25:07;;;;;;;2.07;2.07;;;;;;;3.23;100.00;92782.97;4998392;28;20592;-72
2021/12/31 03:27:34;;;;;;;1.37;1.37;;;;;;;3.27;100.00;92782.06;4999013;28;20207;-72
2021/12/31 03:30:01;;;;;;;1.47;1.37;;;;;;;3.32;100.00;92792.81;4998369;28;20462;-72
2021/12/31 03:32:28;;;;;;;2.33;2.23;;;;;;;3.27;100.00;92789.56;4998019;28;20568;-72
2021/12/31 03:34:56;;;;;;;2.37;2.27;;;;;;;3.16;100.00;92791.38;4998674;28;20578;-72
2021/12/31 03:37:23;;;;;;;2.83;2.73;;;;;;;3.06;100.00;92791.50;4998137;28;20487;-72
2021/12/31 03:39:50;;;;;;;2.93;2.83;;;;;;;3.09;100.00;92784.00;4997856;28;20583;-72
2021/12/31 03:42:19;;;;;;;2.80;2.70;;;;;;;3.10;100.00;92783.94;4998323;28;20466;-72
2021/12/31 03:44:46;;;;;;;2.07;2.00;;;;;;;2.91;100.00;92770.88;4998092;28;20575;-72
2021/12/31 03:47:13;;;;;;;3.17;2.33;;;;;;;2.90;100.00;92784.19;4998060;28;20225;-72
2021/12/31 03:49:40;;;;;;;2.43;2.30;;;;;;;2.93;100.00;92783.31;4997944;28;20527;-72
2021/12/31 03:52:08;;;;;;;1.83;1.83;;;;;;;3.02;100.00;92785.72;4997813;28;20256;-72
2021/12/31 03:54:35;;;;;;;1.33;1.33;;;;;;;3.06;100.00;92789.00;4998492;28;20491;-72
2021/12/31 03:57:02;;;;;;;1.70;1.70;;;;;;;3.08;100.00;92783.16;4997469;28;20191;-72
2021/12/31 03:59:30;;;;;;;3.67;2.83;;;;;;;3.18;100.00;92788.84;4997382;28;20210;-72
2021/12/31 04:01:58;;;;;;;3.37;3.17;;;;;;;3.15;100.00;92792.22;4997333;28;20602;-72
2021/12/31 04:04:25;;;;;;;4.80;4.53;;;;;;;3.17;100.00;92797.19;4997964;28;20547;-72
2021/12/31 04:06:53;;;;;;;3.33;3.20;;;;;;;3.18;100.00;92807.16;4996984;28;20521;-72
2021/12/31 04:09:20;;;;;;;6.67;6.17;;;;;;;3.17;100.00;92815.47;4997820;28;20587;-72
2021/12/31 04:11:47;;;;;;;4.60;4.40;;;;;;;3.14;100.00;92822.19;4997767;28;20213;-72
2021/12/31 04:14:14;;;;;;;5.17;3.53;;;;;;;3.13;100.00;92826.34;4996552;28;20618;-72
2021/12/31 04:16:43;;;;;;;5.00;4.73;;;;;;;2.85;100.00;92807.53;4997048;28;20602;-72
2021/12/31 04:19:10;;;;;;;4.50;4.10;;;;;;;2.86;100.00;92826.66;4997249;28;20210;-72
2021/12/31 04:21:37;;;;;;;3.17;2.77;;;;;;;2.89;100.00;92826.63;4997707;28;20552;-72
2021/12/31 04:24:08;;;;;;;2.80;2.70;;;;;;;2.70;100.00;92807.72;4996777;28;20472;-72
2021/12/31 04:26:36;;;;;;;4.13;3.90;;;;;;;2.90;100.00;92833.28;4997240;28;20602;-72
2021/12/31 04:29:03;;;;;;;4.67;4.30;;;;;;;2.94;100.00;92844.84;4997073;28;20591;-72
2021/12/31 04:31:30;;;;;;;5.13;4.63;;;;;;;2.97;100.00;92849.84;4997245;28;20460;-72
2021/12/31 04:34:04;;;;;;;5.63;5.13;;;;;;;3.01;100.00;92845.63;4997220;28;20555;-72
2021/12/31 04:36:31;;;;;;;6.03;5.57;;;;;;;2.85;100.00;92840.81;4997525;28;20571;-72
2021/12/31 04:38:58;;;;;;;5.37;4.87;;;;;;;2.96;100.00;92855.66;4997112;28;20194;-72
2021/12/31 04:41:25;;;;;;;4.83;4.43;;;;;;;3.04;100.00;92848.94;4996944;28;20551;-72
2021/12/31 04:43:53;;;;;;;7.57;7.00;;;;;;;3.04;100.00;92853.94;4997210;28;20211;-72
2021/12/31 04:46:20;;;;;;;8.63;8.03;;;;;;;3.00;100.00;92852.28;4996780;28;20442;-72
2021/12/31 04:48:47;;;;;;;15.63;11.27;;;;;;;2.95;100.00;92858.16;4995892;28;20642;-72
2021/12/31 04:51:15;;;;;;;11.00;9.93;;;;;;;2.96;100.00;92858.16;4997091;28;20629;-72
2021/12/31 04:53:43;;;;;;;15.77;9.73;;;;;;;2.97;100.00;92849.00;4996558;28;20508;-72
2021/12/31 04:56:10;;;;;;;14.10;7.13;;;;;;;2.97;100.00;92847.34;4996545;28;20470;-72
2021/12/31 04:58:37;;;;;;;12.30;11.00;;;;;;;3.00;100.00;92841.47;4996735;28;20575;-72
2021/12/31 05:01:04;;;;;;;11.33;10.13;;;;;;;2.97;100.00;92851.50;4996156;28;20563;-72
2021/12/31 05:03:31;;;;;;;13.13;9.93;;;;;;;3.10;100.00;92855.53;4996910;28;20575;-72
2021/12/31 05:05:59;;;;;;;11.60;8.20;;;;;;;3.07;100.00;92850.56;4996495;28;20492;-72
2021/12/31 05:08:27;;;;;;;18.40;10.83;;;;;;;3.05;100.00;92858.03;4996296;28;20194;-72
2021/12/31 05:10:55;;;;;;;11.03;9.93;;;;;;;3.06;100.00;92864.69;4996726;28;20614;-72
2021/12/31 05:13:22;;;;;;;13.50;12.07;;;;;;;2.91;100.00;92867.38;4996268;28;20591;-72
2021/12/31 05:15:51;;;;;;;19.87;11.63;;;;;;;2.78;100.00;92858.34;4996478;28;20576;-72
2021/12/31 05:18:18;;;;;;;15.20;10.57;;;;;;;2.82;100.00;92862.44;4996321;28;20548;-72
2021/12/31 05:20:46;;;;;;;15.80;10.53;;;;;;;2.79;100.00;92869.97;4996154;28;20479;-72
2021/12/31 05:23:15;;;;;;;11.47;10.47;;;;;;;2.86;100.00;92869.06;4996538;28;20540;-72
2021/12/31 05:25:44;;;;;;;15.00;11.30;;;;;;;2.84;100.00;92869.09;4996464;28;20616;-72
2021/12/31 05:28:12;;;;;;;11.30;10.07;;;;;;;2.95;100.00;92878.13;4996629;28;20252;-72
2021/12/31 05:30:39;;;;;;;12.97;11.63;;;;;;;2.97;100.00;92869.78;4995664;28;20195;-72
2021/12/31 05:33:06;;;;;;;12.23;9.93;;;;;;;2.78;100.00;92864.16;4996698;28;20510;-72
2021/12/31 05:35:34;;;;;;;7.77;7.30;;;;;;;2.78;100.00;92881.63;4995768;28;20473;-71
2021/12/31 05:38:01;;;;;;;10.20;9.30;;;;;;;2.88;100.00;92877.34;4996217;28;20480;-71
2021/12/31 05:40:28;;;;;;;22.17;9.13;;;;;;;2.93;100.00;92873.16;4998982;28;21174;-71
2021/12/31 05:42:57;;;;;;;16.27;13.13;;;;;;;2.87;100.00;92873.22;4999200;28;20514;-72
2021/12/31 05:45:25;;;;;;;18.67;14.30;;;;;;;2.90;100.00;92879.00;4999311;28;20474;-72
2021/12/31 05:47:52;;;;;;;29.30;14.03;;;;;;;2.95;100.00;92883.94;4995679;28;20633;-73
2021/12/31 05:50:28;;;;;;;19.60;13.00;;;;;;;2.74;100.00;92855.06;4997421;28;20575;-73
2021/12/31 05:52:56;;;;;;;14.20;12.30;;;;;;;2.82;100.00;92875.75;4994116;28;20648;-74
2021/12/31 05:55:23;;;;;;;22.87;14.70;;;;;;;2.80;100.00;92876.63;4997000;28;20613;-72
2021/12/31 05:57:50;;;;;;;19.90;12.83;;;;;;;2.64;100.00;92855.16;4996976;28;20448;-74
2021/12/31 06:00:20;;;;;;;10.70;9.83;;;;;;;2.54;100.00;92841.09;4995035;28;20494;-73
2021/12/31 06:02:48;;;;;;;8.43;7.83;;;;;;;2.76;100.00;92880.00;4996871;28;20583;-73
2021/12/31 06:05:15;;;;;;;9.90;9.00;;;;;;;2.81;100.00;92881.59;4996878;28;20502;-73
2021/12/31 06:07:42;;;;;;;11.50;10.40;;;;;;;2.45;100.00;92837.88;5000107;28;20477;-73
2021/12/31 06:10:10;;;;;;;9.60;8.30;;;;;;;2.58;100.00;92871.00;4997899;28;20356;-74
2021/12/31 06:12:38;;;;;;;7.67;7.07;;;;;;;2.41;100.00;92863.66;4994704;28;20221;-72
2021/12/31 06:15:08;;;;;;;9.50;8.77;;;;;;;2.40;100.00;92876.97;5000827;28;20495;-73
2021/12/31 06:17:37;;;;;;;21.30;14.03;;;;;;;2.36;100.00;92877.84;4997698;28;20615;-72
2021/12/31 06:20:06;;;;;;;28.43;16.20;;;;;;;2.37;100.00;92889.44;5000546;28;20626;-73
2021/12/31 06:22:33;;;;;;;13.67;11.20;;;;;;;2.45;100.00;92885.22;4999297;28;20675;-73
2021/12/31 06:25:00;;;;;;;32.07;15.23;;;;;;;2.48;100.00;92892.69;5000196;28;20564;-72
2021/12/31 06:27:28;;;;;;;19.03;15.37;;;;;;;2.37;100.00;92886.13;4998967;28;20665;-74
2021/12/31 06:29:55;;;;;;;30.73;18.73;;;;;;;2.56;100.00;92905.09;5000785;28;20221;-74
2021/12/31 06:32:23;;;;;;;18.77;15.20;;;;;;;2.55;100.00;92905.09;5000960;28;20672;-73
2021/12/31 06:34:51;;;;;;;19.60;10.50;;;;;;;2.66;100.00;92905.84;5002640;28;20222;-74
2021/12/31 06:37:18;;;;;;;11.90;10.73;;;;;;;2.75;100.00;92908.25;5006374;28;20563;-73
2021/12/31 06:39:48;;;;;;;9.97;8.93;;;;;;;2.87;100.00;92905.66;5001672;28;20198;-74
2021/12/31 06:42:16;;;;;;;12.13;10.90;;;;;;;2.81;100.00;92904.06;5007003;28;20233;-71
2021/12/31 06:44:43;;;;;;;7.40;7.00;;;;;;;2.85;100.00;92908.16;5000543;28;20558;-72
2021/12/31 06:47:10;;;;;;;7.40;6.90;;;;;;;2.88;100.00;92915.59;5001508;28;20206;-72
2021/12/31 06:49:37;;;;;;;5.40;4.60;;;;;;;2.79;100.00;92902.41;5005599;28;20295;-73
2021/12/31 06:52:07;;;;;;;6.67;6.13;;;;;;;2.83;100.00;92917.31;5003664;28;20574;-72
2021/12/31 06:54:36;;;;;;;8.47;7.60;;;;;;;2.73;100.00;92903.28;4997875;28;20494;-73
2021/12/31 06:57:05;;;;;;;9.27;8.47;;;;;;;2.73;100.00;92883.31;5003480;28;20450;-73
2021/12/31 06:59:33;;;;;;;8.57;7.67;;;;;;;2.74;100.00;92862.53;5004639;28;20544;-73
2021/12/31 07:02:00;;;;;;;7.73;7.17;;;;;;;3.09;100.00;92917.09;5005405;28;20573;-72
2021/12/31 07:04:27;;;;;;;9.13;7.73;;;;;;;3.17;100.00;92909.50;5001159;28;20467;-72
2021/12/31 07:06:54;;;;;;;8.90;8.40;;;;;;;3.01;100.00;92898.03;5003505;28;20198;-73
2021/12/31 07:09:24;;;;;;;10.70;9.67;;;;;;;3.28;100.00;92923.53;5007956;28;20477;-73
2021/12/31 07:11:51;;;;;;;13.57;11.03;;;;;;;3.27;100.00;92918.53;5006699;28;20490;-73
2021/12/31 07:14:18;;;;;;;18.50;14.87;;;;;;;3.39;100.00;92933.41;5003087;28;20618;-74
2021/12/31 07:16:46;;;;;;;21.60;14.47;;;;;;;3.42;100.00;92928.38;5002749;28;20500;-75
2021/12/31 07:19:13;;;;;;;21.90;15.20;;;;;;;3.46;100.00;92924.19;5006456;28;20906;-74
2021/12/31 07:21:40;;;;;;;19.07;15.87;;;;;;;3.61;100.00;92932.31;5009993;28;20197;-75
2021/12/31 07:24:07;;;;;;;33.87;19.00;;;;;;;3.70;100.00;92938.88;4998390;28;20459;-75
2021/12/31 07:26:36;;;;;;;45.90;19.80;;;;;;;3.81;100.00;92942.09;5002948;28;20579;-73
2021/12/31 07:29:05;;;;;;;17.97;15.07;;;;;;;3.80;100.00;92925.44;5004237;28;20448;-75
2021/12/31 07:31:32;;;;;;;41.20;19.93;;;;;;;3.89;100.00;92937.81;5002352;28;20522;-75
2021/12/31 07:33:59;;;;;;;17.30;14.03;;;;;;;3.96;100.00;92941.88;5003878;28;20571;-75
2021/12/31 07:36:27;;;;;;;15.27;13.67;;;;;;;3.95;100.00;92937.72;4996978;28;20555;-74
2021/12/31 07:39:00;;;;;;;20.20;14.27;;;;;;;3.92;100.00;92939.44;5001307;28;20230;-75
2021/12/31 07:41:27;;;;;;;12.73;11.33;;;;;;;3.88;100.00;92932.84;4998335;28;20563;-75
2021/12/31 07:43:56;;;;;;;20.17;17.43;;;;;;;3.76;100.00;92918.84;5002761;28;20589;-73
2021/12/31 07:46:23;;;;;;;11.10;10.13;;;;;;;3.87;100.00;92943.69;5006183;28;20253;-74
2021/12/31 07:48:50;;;;;;;15.20;11.97;;;;;;;3.91;100.00;92933.63;4997342;28;20502;-74
2021/12/31 07:51:18;;;;;;;14.70;9.40;;;;;;;3.97;100.00;92938.53;4998450;28;20598;-73
2021/12/31 07:53:46;;;;;;;11.27;10.10;;;;;;;3.95;100.00;92942.72;4998331;28;20585;-74
2021/12/31 07:56:14;;;;;;;24.00;17.87;;;;;;;3.94;100.00;92937.78;4999674;28;20571;-74
2021/12/31 07:58:41;;;;;;;12.70;9.57;;;;;;;4.00;100.00;92940.19;4997136;28;20487;-74
2021/12/31 08:01:10;;;;;;;10.37;8.40;;;;;;;4.04;100.00;92944.28;4999556;28;20705;-74
2021/12/31 08:03:38;;;;;;;26.77;12.47;;;;;;;3.77;100.00;92919.66;4998763;28;20522;-74
2021/12/31 08:06:05;;;;;;;26.20;14.73;;;;;;;3.98;100.00;92936.88;4999321;28;20487;-73
2021/12/31 08:08:32;;;;;;;27.33;12.63;;;;;;;4.08;100.00;92925.91;4995526;28;20482;-72
2021/12/31 08:10:59;;;;;;;29.13;17.17;;;;;;;4.18;100.00;92930.75;4995647;28;20489;-73
2021/12/31 08:13:27;;;;;;;24.13;14.53;;;;;;;4.17;100.00;92936.59;5004213;28;20191;-75
2021/12/31 08:15:54;;;;;;;16.47;12.77;;;;;;;4.21;100.00;92929.06;4998476;28;20493;-75
2021/12/31 08:18:23;;;;;;;23.70;15.67;;;;;;;4.28;100.00;92928.94;4998054;28;20614;-74
2021/12/31 08:20:50;;;;;;;42.10;19.27;;;;;;;4.24;100.00;92924.00;4997138;28;20594;-75
2021/12/31 08:23:18;;;;;;;37.37;19.10;;;;;;;4.27;100.00;92936.47;4999086;28;20567;-74
2021/12/31 08:25:45;;;;;;;52.73;21.40;;;;;;;4.28;100.00;92936.44;5002675;28;20484;-74
2021/12/31 08:28:12;;;;;;;35.33;16.80;;;;;;;4.17;100.00;92938.25;5000088;28;20607;-74
2021/12/31 08:30:39;;;;;;;40.47;18.03;;;;;;;4.10;100.00;92945.03;4998378;28;20484;-74
2021/12/31 08:33:07;;;;;;;21.33;13.20;;;;;;;4.07;100.00;92939.25;5001349;28;20217;-75
2021/12/31 08:35:35;;;;;;;11.90;10.43;;;;;;;4.11;100.00;92946.66;4994772;28;20749;-73
2021/12/31 08:38:03;;;;;;;10.83;9.87;;;;;;;4.05;100.00;92939.28;4998172;28;20583;-75
2021/12/31 08:40:30;;;;;;;23.90;9.80;;;;;;;4.00;100.00;92930.19;4997297;28;20483;-74
2021/12/31 08:42:57;;;;;;;21.17;16.60;;;;;;;4.21;100.00;92949.91;5000073;28;20545;-75
2021/12/31 08:45:29;;;;;;;21.73;11.73;;;;;;;4.26;100.00;92945.66;4999838;28;20595;-75
2021/12/31 08:47:58;;;;;;;20.80;12.53;;;;;;;4.35;100.00;92947.19;4998449;28;20567;-74
2021/12/31 08:50:25;;;;;;;36.90;18.90;;;;;;;4.28;100.00;92923.13;4999431;28;20611;-74
2021/12/31 08:52:53;;;;;;;8.93;8.17;;;;;;;4.28;100.00;92923.94;5000903;28;20198;-74
2021/12/31 08:55:21;;;;;;;15.27;8.47;;;;;;;4.35;100.00;92929.69;5002081;28;20496;-75
2021/12/31 08:57:49;;;;;;;20.17;9.77;;;;;;;4.40;100.00;92925.44;4996906;28;20556;-75
2021/12/31 09:00:17;;;;;;;21.30;13.20;;;;;;;4.39;100.00;92932.16;4996825;28;20203;-74
2021/12/31 09:02:45;;;;;;;25.50;13.47;;;;;;;4.38;100.00;92912.97;4996048;28;20563;-74
2021/12/31 09:05:13;;;;;;;18.00;13.17;;;;;;;4.50;100.00;92925.31;4997411;28;20468;-75
2021/12/31 09:07:40;;;;;;;20.70;12.20;;;;;;;4.58;100.00;92922.66;4998340;28;20497;-75
2021/12/31 09:10:10;;;;;;;23.70;14.53;;;;;;;4.57;100.00;92921.00;4998081;28;20229;-77
2021/12/31 09:12:37;;;;;;;18.00;12.73;;;;;;;4.62;100.00;92924.25;4994742;28;20489;-76
2021/12/31 09:15:06;;;;;;;32.43;17.83;;;;;;;4.61;100.00;92924.31;4996242;28;20479;-75
2021/12/31 09:17:33;;;;;;;35.40;16.60;;;;;;;4.68;100.00;92909.16;4997705;28;20611;-75
2021/12/31 09:20:00;;;;;;;39.67;21.03;;;;;;;4.81;100.00;92905.63;5002904;28;20595;-73
2021/12/31 09:22:28;;;;;;;66.83;22.60;;;;;;;4.92;100.00;92907.94;5000728;28;20546;-75
2021/12/31 09:24:58;;;;;;;52.73;22.83;;;;;;;5.04;100.00;92891.88;4999037;28;20225;-76
2021/12/31 09:27:27;;;;;;;46.70;21.07;;;;;;;5.19;100.00;92892.41;5003085;28;20577;-77
2021/12/31 09:29:54;;;;;;;51.60;20.63;;;;;;;5.19;100.00;92867.38;4998860;28;20462;-77
2021/12/31 09:32:22;;;;;;;33.57;19.57;;;;;;;5.33;100.00;92877.16;4994305;28;20528;-75
2021/12/31 09:34:49;;;;;;;57.77;24.90;;;;;;;5.20;100.00;92878.22;4997055;28;20269;-76
2021/12/31 09:37:18;;;;;;;31.87;19.13;;;;;;;5.30;100.00;92883.03;5004287;28;20473;-76
2021/12/31 09:39:46;;;;;;;37.87;20.50;;;;;;;5.35;100.00;92876.25;5001099;28;20518;-76
2021/12/31 09:42:18;;;;;;;39.57;20.00;;;;;;;5.40;100.00;92871.19;4999453;28;20469;-77
2021/12/31 09:44:48;;;;;;;38.40;20.80;;;;;;;5.50;100.00;92874.31;4999118;28;20303;-76
2021/12/31 09:47:17;;;;;;;42.00;20.87;;;;;;;5.56;100.00;92874.22;4994846;28;20692;-74
2021/12/31 09:49:45;;;;;;;39.70;22.03;;;;;;;5.55;100.00;92839.97;4996163;28;20606;-75
2021/12/31 09:52:14;;;;;;;51.00;24.00;;;;;;;5.87;100.00;92861.84;4994878;28;20461;-74
2021/12/31 09:54:43;;;;;;;35.87;21.20;;;;;;;5.99;100.00;92857.44;5000649;28;20818;-74
2021/12/31 09:57:14;;;;;;;47.20;20.77;;;;;;;6.21;100.00;92863.63;4994582;28;20195;-75
2021/12/31 09:59:41;;;;;;;50.33;24.57;;;;;;;6.32;100.00;92860.88;4990084;28;20576;-76
2021/12/31 10:02:11;;;;;;;49.47;23.73;;;;;;;6.54;100.00;92851.16;4991782;28;20591;-75
2021/12/31 10:04:57;;;;;;;49.83;24.93;;;;;;;6.57;100.00;92836.03;4996820;28;20500;-74
2021/12/31 10:07:24;;;;;;;37.50;22.07;;;;;;;6.83;100.00;92852.97;5000127;28;20575;-74
2021/12/31 10:10:06;;;;;;;60.93;28.40;;;;;;;7.08;100.00;92851.50;5001778;28;20281;-75
2021/12/31 10:12:47;;;;;;;68.80;28.27;;;;;;;7.63;100.00;92837.44;5003528;28;20591;-73
2021/12/31 10:15:17;;;;;;;71.60;34.87;;;;;;;8.17;100.00;92855.97;5001386;28;20599;-74
2021/12/31 10:17:46;;;;;;;62.63;29.03;;;;;;;8.64;96.63;92862.09;5002757;28;20664;-74
2021/12/31 10:20:14;;;;;;;56.57;28.30;;;;;;;9.17;93.65;92853.69;5003062;28;20611;-74
2021/12/31 10:22:41;;;;;;;61.53;28.67;;;;;;;9.85;92.06;92857.16;5003201;28;20526;-74
2021/12/31 10:25:19;;;;;;;81.63;33.87;;;;;;;10.82;88.17;92871.13;4999849;28;20225;-72
2021/12/31 10:27:46;;;;;;;74.60;31.40;;;;;;;11.27;84.43;92871.88;5009369;28;20498;-73
2021/12/31 10:30:13;;;;;;;75.30;30.27;;;;;;;11.90;82.10;92871.69;5000750;28;20487;-72
2021/12/31 10:32:42;;;;;;;75.33;32.43;;;;;;;12.65;79.17;92868.31;5001641;28;20566;-72
2021/12/31 10:35:15;;;;;;;83.47;35.20;;;;;;;13.17;76.98;92885.28;5001322;28;20618;-73
2021/12/31 10:37:44;;;;;;;85.65;36.20;;;;;;;13.62;75.19;92879.66;4999725;28;20471;-74
2021/12/31 10:40:12;;;;;;;81.13;31.92;;;;;;;14.19;73.69;92869.16;5000377;28;20497;-73
2021/12/31 10:42:40;;;;;;;71.20;31.65;;;;;;;14.11;71.86;92877.16;5008143;28;20489;-74
2021/12/31 10:45:12;;;;;;;86.65;31.98;;;;;;;13.98;72.54;92863.44;5000672;28;20613;-74
2021/12/31 10:47:42;;;;;;;81.72;31.05;;;;;;;14.04;73.19;92858.88;4998741;28;20638;-74
2021/12/31 10:50:13;;;;;;;62.83;27.48;;;;;;;13.80;72.79;92859.31;5000937;28;20652;-74
2021/12/31 10:52:57;;;;;;;42.22;21.70;;;;;;;13.39;74.26;92839.38;5001659;28;20494;-74
2021/12/31 10:55:27;;;;;;;44.47;19.95;;;;;;;12.91;76.86;92837.47;5001804;28;20637;-76
2021/12/31 10:57:57;;;;;;;31.88;16.33;;;;;;;12.55;78.63;92824.03;4996955;28;20484;-76
2021/12/31 11:00:26;;;;;;;25.20;13.70;;;;;;;12.33;80.51;92816.59;4998142;28;20582;-75
2021/12/31 11:02:54;;;;;;;25.27;13.60;;;;;;;12.53;81.14;92810.59;5000265;28;20508;-77
2021/12/31 11:05:23;;;;;;;35.53;15.43;;;;;;;12.93;79.77;92812.06;5000938;28;20666;-76
2021/12/31 11:07:52;;;;;;;31.95;17.15;;;;;;;13.71;77.91;92825.06;4999913;28;20472;-76
2021/12/31 11:10:25;;;;;;;44.00;18.27;;;;;;;14.42;75.71;92838.28;5000404;28;20659;-76
2021/12/31 11:12:53;;;;;;;29.17;17.40;;;;;;;15.26;72.56;92852.25;5001751;28;20226;-76
2021/12/31 11:15:21;;;;;;;44.72;19.58;;;;;;;15.29;70.92;92854.59;4999157;28;20490;-75
2021/12/31 11:17:52;;;;;;;47.70;21.33;;;;;;;14.97;72.05;92848.78;4999253;28;20587;-76
2021/12/31 11:20:24;;;;;;;42.10;21.17;;;;;;;14.86;72.98;92829.03;5000339;28;20516;-75
2021/12/31 11:22:52;;;;;;;55.63;22.45;;;;;;;15.39;71.31;92843.00;5001987;28;20210;-75
2021/12/31 11:25:22;;;;;;;53.67;22.73;;;;;;;15.78;71.19;92834.78;4999171;28;20624;-75
2021/12/31 11:27:51;;;;;;;39.13;20.20;;;;;;;16.50;69.72;92841.47;5004161;28;20547;-76
2021/12/31 11:30:28;;;;;;;57.55;20.75;;;;;;;17.41;65.06;92838.22;4997020;28;20198;-76